Time;durP1;ratioP1;P1;durP2;ratioP2;P2;SDS_P1;SDS_P2;PMS_P1;PMS_P2;Temp;Humidity;BMP_temperature;BMP_pressure;BME280_temperature;BME280_humidity;BME280_pressure;Samples;Min_cycle;Max_cycle;Signal;HPM_P1;HPM_P2
2023/08/17 00:02:23;;;;;;;8.40;5.80;;;;;;;27.20;65.61;100471.25;4896411;29;20135;-67
2023/08/17 00:04:53;;;;;;;8.65;5.93;;;;;;;27.17;65.46;100461.56;4896389;29;20132;-66
2023/08/17 00:07:24;;;;;;;8.88;6.03;;;;;;;27.18;66.04;100457.78;4896422;29;20100;-67
2023/08/17 00:09:52;;;;;;;9.05;6.20;;;;;;;27.17;65.92;100453.34;4896390;29;20064;-67
2023/08/17 00:12:21;;;;;;;8.23;6.15;;;;;;;27.16;65.57;100454.38;4896418;29;20052;-67
2023/08/17 00:14:49;;;;;;;8.55;6.13;;;;;;;27.14;65.92;100453.75;4896224;29;20060;-68
2023/08/17 00:17:17;;;;;;;8.43;6.32;;;;;;;27.14;65.74;100456.47;4896293;29;20056;-67
2023/08/17 00:19:47;;;;;;;9.18;6.30;;;;;;;27.13;65.75;100454.78;4896134;29;20563;-67
2023/08/17 00:22:16;;;;;;;7.40;6.15;;;;;;;27.10;65.78;100450.53;4896399;29;20060;-67
2023/08/17 00:24:47;;;;;;;8.43;6.35;;;;;;;27.09;66.21;100453.47;4896345;29;20045;-67
2023/08/17 00:27:15;;;;;;;7.55;6.07;;;;;;;27.08;66.17;100452.63;4896196;29;20495;-67
2023/08/17 00:29:44;;;;;;;7.68;5.90;;;;;;;27.07;65.79;100450.09;4896068;29;20136;-67
2023/08/17 00:32:12;;;;;;;7.85;6.22;;;;;;;27.06;66.07;100449.22;4896223;29;20556;-67
2023/08/17 00:34:40;;;;;;;8.27;6.30;;;;;;;27.05;66.01;100442.06;4896302;29;20598;-67
2023/08/17 00:37:08;;;;;;;9.70;6.00;;;;;;;27.03;66.53;100444.16;4896275;29;20053;-67
2023/08/17 00:39:37;;;;;;;10.73;6.30;;;;;;;27.02;66.32;100444.28;4896061;29;20490;-67
2023/08/17 00:42:07;;;;;;;9.05;6.40;;;;;;;27.02;66.24;100433.34;4896096;29;20097;-67
2023/08/17 00:44:36;;;;;;;8.00;6.07;;;;;;;27.01;66.31;100439.88;4898831;29;20060;-67
2023/08/17 00:47:05;;;;;;;10.52;6.80;;;;;;;26.99;66.83;100445.53;4899740;29;20083;-67
2023/08/17 00:49:35;;;;;;;8.20;6.00;;;;;;;26.98;66.57;100449.31;4899373;29;20498;-67
2023/08/17 00:52:04;;;;;;;7.65;6.15;;;;;;;26.96;67.04;100454.16;4899491;29;20576;-67
2023/08/17 00:54:33;;;;;;;8.77;6.50;;;;;;;26.98;66.96;100453.94;4899278;29;20056;-67
2023/08/17 00:57:06;;;;;;;10.43;6.75;;;;;;;26.95;66.65;100454.34;4898203;29;20474;-67
2023/08/17 00:59:34;;;;;;;7.80;6.57;;;;;;;26.94;66.87;100455.41;4899148;29;20491;-67
2023/08/17 01:02:05;;;;;;;7.90;6.57;;;;;;;26.94;66.92;100450.75;4899106;29;20502;-67
2023/08/17 01:04:33;;;;;;;8.20;6.28;;;;;;;26.93;67.17;100453.69;4899267;29;20060;-67
2023/08/17 01:07:02;;;;;;;9.25;6.57;;;;;;;26.91;67.39;100455.75;4899224;29;20124;-67
2023/08/17 01:09:30;;;;;;;10.60;6.55;;;;;;;26.91;67.13;100445.66;4899154;29;20138;-67
2023/08/17 01:12:08;;;;;;;10.43;6.60;;;;;;;26.89;67.19;100442.28;4898928;29;20569;-67
2023/08/17 01:14:44;;;;;;;8.75;6.70;;;;;;;26.90;67.66;100445.84;4899127;29;20148;-66
2023/08/17 01:17:20;;;;;;;8.90;6.88;;;;;;;26.90;67.46;100451.34;4898931;29;20045;-67
2023/08/17 01:19:53;;;;;;;10.63;6.88;;;;;;;26.87;67.63;100459.94;4898835;29;20060;-68
2023/08/17 01:22:23;;;;;;;8.50;6.90;;;;;;;26.86;67.68;100460.97;4898763;29;20051;-67
2023/08/17 01:24:57;;;;;;;10.68;6.60;;;;;;;26.85;67.51;100467.50;4899239;29;20053;-67
2023/08/17 01:27:25;;;;;;;10.52;6.82;;;;;;;26.84;67.47;100461.19;4898683;29;20048;-67
2023/08/17 01:29:57;;;;;;;9.57;6.50;;;;;;;26.82;67.86;100458.59;4897386;29;20056;-67
2023/08/17 01:32:31;;;;;;;7.85;6.55;;;;;;;26.82;67.44;100464.09;4898648;29;20051;-67
2023/08/17 01:35:04;;;;;;;9.52;6.97;;;;;;;26.81;67.58;100467.00;4898379;29;20489;-67
2023/08/17 01:37:39;;;;;;;8.30;6.80;;;;;;;26.79;67.56;100461.75;4898515;29;20577;-67
2023/08/17 01:40:11;;;;;;;8.55;6.63;;;;;;;26.79;67.63;100458.16;4898572;29;20080;-67
2023/08/17 01:42:41;;;;;;;11.05;6.85;;;;;;;26.80;67.54;100454.38;4898524;29;20049;-67
2023/08/17 01:45:10;;;;;;;8.95;6.78;;;;;;;26.77;68.08;100455.63;4898464;29;20056;-67
2023/08/17 01:47:38;;;;;;;11.73;7.40;;;;;;;26.78;67.67;100449.09;4898260;29;20123;-67
2023/08/17 01:50:07;;;;;;;8.40;6.75;;;;;;;26.76;67.64;100451.19;4898593;29;20059;-67
2023/08/17 01:52:35;;;;;;;8.32;7.15;;;;;;;26.76;68.15;100453.94;4898388;29;20064;-67
2023/08/17 01:55:04;;;;;;;10.35;6.60;;;;;;;26.75;67.83;100451.38;4897722;29;20529;-67
2023/08/17 01:57:36;;;;;;;8.80;7.00;;;;;;;26.74;67.79;100445.06;4898047;29;20049;-67
2023/08/17 02:00:06;;;;;;;8.63;6.70;;;;;;;26.73;68.17;100448.84;4898095;29;20052;-66
2023/08/17 02:02:35;;;;;;;9.52;6.85;;;;;;;26.73;68.40;100447.97;4897252;29;20056;-67
2023/08/17 02:05:03;;;;;;;10.15;6.90;;;;;;;26.71;68.48;100452.78;4898284;29;20079;-67
2023/08/17 02:07:34;;;;;;;8.63;6.90;;;;;;;26.71;68.07;100455.53;4898143;29;20052;-67
2023/08/17 02:10:02;;;;;;;8.43;6.80;;;;;;;26.70;68.67;100460.16;4897983;29;20139;-67
2023/08/17 02:12:36;;;;;;;8.20;6.55;;;;;;;26.68;68.53;100462.25;4897903;29;20048;-66
2023/08/17 02:15:07;;;;;;;9.07;7.28;;;;;;;26.68;68.55;100467.72;4898065;29;20052;-66
2023/08/17 02:17:37;;;;;;;9.02;6.90;;;;;;;26.68;68.43;100456.78;4898036;29;20060;-66
2023/08/17 02:20:08;;;;;;;9.00;6.75;;;;;;;26.58;68.69;100439.81;4896654;29;20056;-67
2023/08/17 02:22:36;;;;;;;9.13;7.30;;;;;;;26.64;68.88;100441.78;4897872;29;20059;-66
2023/08/17 02:25:06;;;;;;;8.05;6.63;;;;;;;26.63;68.48;100434.59;4897550;29;20087;-66
2023/08/17 02:27:35;;;;;;;11.63;6.90;;;;;;;26.63;68.83;100431.88;4897877;29;20411;-66
2023/08/17 02:30:04;;;;;;;11.77;6.72;;;;;;;26.63;68.58;100431.88;4897453;29;20123;-67
2023/08/17 02:32:33;;;;;;;9.45;6.68;;;;;;;26.63;68.77;100437.34;4897693;29;20414;-68
2023/08/17 02:35:01;;;;;;;8.90;6.93;;;;;;;26.62;68.30;100441.09;4897313;29;20494;-68
2023/08/17 02:37:31;;;;;;;9.00;6.93;;;;;;;26.60;68.44;100445.94;4897430;29;20568;-68
2023/08/17 02:40:00;;;;;;;9.65;6.97;;;;;;;26.59;68.48;100444.25;4897549;29;20045;-68
2023/08/17 02:42:28;;;;;;;9.18;6.90;;;;;;;26.59;68.31;100446.13;4897427;29;20060;-67
2023/08/17 02:44:59;;;;;;;9.93;6.65;;;;;;;26.59;68.47;100446.13;4897426;29;20053;-67
2023/08/17 02:47:27;;;;;;;9.48;6.97;;;;;;;26.58;68.38;100442.53;4897395;29;20072;-67
2023/08/17 02:49:56;;;;;;;9.85;6.85;;;;;;;26.56;68.27;100444.63;4897275;29;20052;-67
2023/08/17 02:52:24;;;;;;;8.35;6.97;;;;;;;26.55;68.78;100444.84;4897259;29;20084;-67
2023/08/17 02:54:53;;;;;;;7.60;6.32;;;;;;;26.55;68.91;100447.56;4897324;29;20057;-67
2023/08/17 02:57:23;;;;;;;9.77;6.85;;;;;;;26.54;68.69;100452.19;4897268;29;20071;-67
2023/08/17 02:59:51;;;;;;;10.32;6.93;;;;;;;26.55;68.59;100439.38;4897104;29;20100;-67
2023/08/17 03:02:21;;;;;;;8.70;6.90;;;;;;;26.55;68.43;100433.88;4897065;29;20173;-67
2023/08/17 03:04:52;;;;;;;;;;;;;;;26.53;68.37;100434.06;4897460;29;20056;-67
2023/08/17 03:07:20;;;;;;;9.32;6.95;;;;;;;26.52;68.24;100435.09;4896396;29;20003;-67
2023/08/17 03:09:49;;;;;;;8.70;6.90;;;;;;;26.51;68.31;100427.94;4897060;29;20451;-67
2023/08/17 03:12:17;;;;;;;9.32;6.95;;;;;;;26.51;68.52;100433.41;4896971;29;20052;-67
2023/08/17 03:14:45;;;;;;;9.23;6.90;;;;;;;26.50;68.54;100431.72;4896734;29;20056;-67
2023/08/17 03:17:13;;;;;;;8.13;6.90;;;;;;;26.49;68.08;100430.03;4896813;29;20055;-67
2023/08/17 03:19:44;;;;;;;9.02;6.78;;;;;;;26.49;68.44;100430.03;4896741;29;20498;-67
2023/08/17 03:22:12;;;;;;;9.73;6.68;;;;;;;26.47;68.21;100432.94;4896980;29;20413;-67
2023/08/17 03:24:40;;;;;;;9.68;6.90;;;;;;;26.45;68.70;100428.72;4896977;29;20438;-66
2023/08/17 03:27:11;;;;;;;11.13;7.07;;;;;;;26.45;68.30;100420.50;4896614;29;20499;-66
2023/08/17 03:29:40;;;;;;;9.57;6.75;;;;;;;26.44;68.40;100421.53;4896613;29;20459;-67
2023/08/17 03:32:13;;;;;;;9.90;7.03;;;;;;;26.42;68.44;100412.66;4896529;29;20052;-67
2023/08/17 03:34:43;;;;;;;10.27;7.80;;;;;;;26.40;69.05;100420.22;4896525;29;20121;-67
2023/08/17 03:37:11;;;;;;;13.18;7.70;;;;;;;26.36;68.96;100414.28;4896664;29;20144;-68
2023/08/17 03:39:39;;;;;;;11.30;7.28;;;;;;;26.38;68.57;100428.63;4896608;29;20414;-67
2023/08/17 03:42:08;;;;;;;11.30;7.35;;;;;;;26.37;69.02;100421.47;4896516;29;20060;-68
2023/08/17 03:44:36;;;;;;;11.52;7.18;;;;;;;26.37;69.02;100420.59;4896438;29;20075;-67
2023/08/17 03:47:04;;;;;;;9.80;7.78;;;;;;;26.37;68.73;100420.59;4896670;29;20506;-68
2023/08/17 03:49:33;;;;;;;10.88;7.85;;;;;;;26.37;68.87;100426.94;4896472;29;20068;-68
2023/08/17 03:52:05;;;;;;;14.55;8.02;;;;;;;26.36;68.46;100419.72;4896541;29;20211;-67
2023/08/17 03:54:33;;;;;;;9.40;7.30;;;;;;;26.36;68.43;100418.88;4896211;29;20056;-67
2023/08/17 03:57:01;;;;;;;11.90;7.68;;;;;;;26.36;68.81;100418.88;4896350;29;20052;-67
2023/08/17 03:59:30;;;;;;;12.93;7.90;;;;;;;26.35;68.55;100425.41;4896740;29;20087;-66
2023/08/17 04:02:01;;;;;;;11.50;7.45;;;;;;;26.34;68.90;100426.41;4896441;29;20151;-66
2023/08/17 04:04:29;;;;;;;14.45;7.70;;;;;;;26.34;68.51;100426.41;4896294;29;20049;-67
2023/08/17 04:06:58;;;;;;;11.60;7.80;;;;;;;26.33;68.66;100431.03;4895229;29;20045;-67
2023/08/17 04:09:27;;;;;;;10.55;7.32;;;;;;;26.31;68.88;100421.34;4896415;29;20139;-67
2023/08/17 04:11:59;;;;;;;9.80;7.32;;;;;;;26.31;68.67;100427.66;4896284;29;20052;-67
2023/08/17 04:14:30;;;;;;;14.07;7.65;;;;;;;26.30;68.80;100420.47;4896439;29;20044;-67
2023/08/17 04:16:58;;;;;;;10.25;7.60;;;;;;;26.30;68.85;100430.56;4896228;29;20056;-67
2023/08/17 04:19:29;;;;;;;9.95;7.80;;;;;;;26.30;68.93;100436.03;4899091;29;20108;-66
2023/08/17 04:21:58;;;;;;;12.30;7.72;;;;;;;26.29;69.41;100434.34;4899854;29;20048;-68
2023/08/17 04:24:28;;;;;;;11.60;8.20;;;;;;;26.28;69.56;100438.97;4899706;29;20477;-67
2023/08/17 04:26:57;;;;;;;11.27;7.90;;;;;;;26.27;69.58;100436.44;4899526;29;20052;-67
2023/08/17 04:29:25;;;;;;;10.98;8.13;;;;;;;26.27;69.71;100447.38;4899718;29;20059;-67
2023/08/17 04:31:56;;;;;;;11.40;7.50;;;;;;;26.25;69.68;100445.69;4899896;29;20155;-66
2023/08/17 04:34:28;;;;;;;11.75;8.20;;;;;;;26.26;69.60;100441.06;4899639;29;20084;-66
2023/08/17 04:36:56;;;;;;;10.52;7.90;;;;;;;26.25;69.35;100445.69;4899459;29;20459;-67
2023/08/17 04:39:24;;;;;;;12.75;8.23;;;;;;;26.24;69.82;100457.63;4899451;29;20053;-68
2023/08/17 04:41:56;;;;;;;10.88;7.65;;;;;;;26.24;69.68;100452.16;4899625;29;20059;-67
2023/08/17 04:44:24;;;;;;;12.93;7.83;;;;;;;26.24;70.03;100449.41;4899508;29;20049;-67
2023/08/17 04:46:53;;;;;;;13.35;7.97;;;;;;;26.23;69.67;100458.66;4899190;29;20056;-67
2023/08/17 04:49:25;;;;;;;10.73;7.60;;;;;;;26.23;69.97;100455.94;4899054;29;20048;-68
2023/08/17 04:51:53;;;;;;;11.55;7.90;;;;;;;26.24;69.61;100452.16;4898882;29;20100;-68
2023/08/17 04:54:24;;;;;;;9.85;8.05;;;;;;;26.23;70.04;100458.66;4899110;29;20510;-66
2023/08/17 04:57:00;;;;;;;11.15;7.45;;;;;;;26.23;69.98;100455.09;4899129;29;20131;-67
2023/08/17 04:59:28;;;;;;;10.70;7.97;;;;;;;26.23;70.30;100455.09;4899227;29;20049;-68
2023/08/17 05:01:56;;;;;;;10.20;7.97;;;;;;;26.22;70.26;100446.03;4899264;29;20075;-67
2023/08/17 05:04:24;;;;;;;12.65;7.97;;;;;;;26.24;69.75;100448.56;4898813;29;20506;-67
2023/08/17 05:06:53;;;;;;;11.52;8.38;;;;;;;26.22;70.04;100451.50;4899205;29;20095;-67
2023/08/17 05:09:21;;;;;;;9.77;7.60;;;;;;;26.23;70.36;100444.16;4898922;29;20048;-67
2023/08/17 05:11:52;;;;;;;12.60;8.32;;;;;;;26.21;70.25;100443.50;4898955;29;20108;-66
2023/08/17 05:14:21;;;;;;;9.27;7.85;;;;;;;26.21;70.46;100452.53;4898699;29;20093;-68
2023/08/17 05:16:49;;;;;;;10.75;7.72;;;;;;;26.22;70.67;100459.69;4898361;29;20143;-67
2023/08/17 05:19:18;;;;;;;11.13;8.15;;;;;;;26.21;70.45;100459.91;4898853;29;20056;-67
2023/08/17 05:21:48;;;;;;;11.00;7.95;;;;;;;26.23;70.24;100461.41;4898838;29;20049;-68
2023/08/17 05:24:17;;;;;;;8.70;7.65;;;;;;;26.23;70.11;100453.19;4898547;29;20128;-67
2023/08/17 05:26:46;;;;;;;10.38;8.63;;;;;;;26.20;70.44;100452.75;4898604;29;20388;-68
2023/08/17 05:29:14;;;;;;;11.65;8.05;;;;;;;26.21;70.62;100451.69;4898109;29;20678;-67
2023/08/17 05:31:44;;;;;;;11.93;8.77;;;;;;;26.21;70.34;100447.06;4897675;29;20049;-67
2023/08/17 05:34:13;;;;;;;11.70;8.50;;;;;;;26.20;70.53;100448.13;4898087;29;20048;-67
2023/08/17 05:36:41;;;;;;;11.50;8.63;;;;;;;26.23;70.25;100447.72;4898343;29;20052;-68
2023/08/17 05:39:10;;;;;;;12.90;8.57;;;;;;;26.23;70.42;100455.94;4898376;29;20060;-68
2023/08/17 05:41:38;;;;;;;11.32;8.32;;;;;;;26.23;70.85;100457.81;4898349;29;20053;-66
2023/08/17 05:44:07;;;;;;;14.02;9.38;;;;;;;26.24;70.42;100460.34;4898321;29;20061;-67
2023/08/17 05:46:35;;;;;;;9.68;8.20;;;;;;;26.25;70.54;100462.09;4898286;29;20055;-68
2023/08/17 05:49:07;;;;;;;12.30;8.65;;;;;;;26.25;70.14;100462.09;4898557;29;20401;-68
2023/08/17 05:51:35;;;;;;;13.53;8.67;;;;;;;26.25;70.30;100453.88;4898360;29;20112;-67
2023/08/17 05:54:07;;;;;;;11.48;9.07;;;;;;;26.28;70.25;100460.00;4898199;29;20076;-67
2023/08/17 05:56:35;;;;;;;13.05;8.70;;;;;;;26.27;70.54;100466.50;4898318;29;20454;-67
2023/08/17 05:59:04;;;;;;;11.10;8.35;;;;;;;26.29;69.87;100461.69;4898241;29;20076;-67
2023/08/17 06:01:32;;;;;;;10.70;8.60;;;;;;;26.29;70.26;100456.22;4897882;29;20088;-66
2023/08/17 06:04:01;;;;;;;10.38;8.00;;;;;;;26.28;69.80;100449.91;4898004;29;20049;-67
2023/08/17 06:06:34;;;;;;;11.38;8.70;;;;;;;26.28;69.98;100444.44;4897796;29;20183;-68
2023/08/17 06:09:02;;;;;;;13.65;8.57;;;;;;;26.30;69.98;100452.44;4916726;29;20167;-68
2023/08/17 06:11:30;;;;;;;10.00;7.93;;;;;;;26.33;69.77;100457.53;4916869;29;20044;-67
2023/08/17 06:13:58;;;;;;;11.50;8.32;;;;;;;26.33;69.23;100452.06;4916831;29;20087;-67
2023/08/17 06:16:27;;;;;;;10.80;8.45;;;;;;;26.32;69.07;100444.91;4916675;29;20415;-68
2023/08/17 06:18:55;;;;;;;10.38;7.90;;;;;;;26.32;69.06;100447.63;4915224;29;20485;-68
2023/08/17 06:21:24;;;;;;;10.90;7.70;;;;;;;26.32;68.66;100444.91;4916469;29;20048;-70
2023/08/17 06:23:53;;;;;;;9.63;7.55;;;;;;;26.33;68.51;100450.19;4918348;29;20059;-69
2023/08/17 06:26:22;;;;;;;9.88;7.82;;;;;;;26.31;68.08;100440.47;4916599;29;20051;-68
2023/08/17 06:28:50;;;;;;;9.77;7.60;;;;;;;26.33;68.41;100436.50;4916470;29;20115;-68
2023/08/17 06:31:19;;;;;;;11.80;8.30;;;;;;;26.33;68.10;100436.50;4916436;29;20051;-68
2023/08/17 06:33:47;;;;;;;10.45;7.50;;;;;;;26.32;67.93;100431.22;4916420;29;20048;-68
2023/08/17 06:36:16;;;;;;;12.70;7.80;;;;;;;26.33;67.66;100435.66;4916079;29;20474;-68
2023/08/17 06:38:44;;;;;;;9.63;7.18;;;;;;;26.32;67.87;100431.22;4915882;29;20608;-67
2023/08/17 06:41:15;;;;;;;9.75;7.22;;;;;;;26.35;67.93;100428.13;4907704;29;20045;-68
2023/08/17 06:43:43;;;;;;;10.98;7.68;;;;;;;26.33;67.39;100416.50;4905327;29;20048;-67
2023/08/17 06:46:14;;;;;;;10.07;7.18;;;;;;;26.33;67.48;100409.16;4906505;29;20119;-68
2023/08/17 06:48:43;;;;;;;9.20;7.10;;;;;;;26.34;66.92;100410.00;4907313;29;20040;-69
2023/08/17 06:51:11;;;;;;;10.35;7.15;;;;;;;26.34;67.10;100415.47;4906381;29;20048;-68
2023/08/17 06:53:39;;;;;;;9.82;7.20;;;;;;;26.33;66.76;100420.09;4904915;29;20565;-68
2023/08/17 06:56:10;;;;;;;9.45;6.88;;;;;;;26.36;66.91;100435.28;4905724;29;20067;-68
2023/08/17 06:58:43;;;;;;;10.70;7.07;;;;;;;26.36;66.88;100436.16;4902243;29;20471;-68
2023/08/17 07:01:11;;;;;;;10.13;7.07;;;;;;;26.37;66.37;100437.88;4909367;29;20079;-69
2023/08/17 07:03:39;;;;;;;9.27;7.30;;;;;;;26.37;66.74;100437.00;4916022;29;20191;-69
2023/08/17 07:06:07;;;;;;;9.65;7.30;;;;;;;26.37;66.14;100442.47;4908235;29;20491;-69
2023/08/17 07:08:35;;;;;;;10.52;6.85;;;;;;;26.36;66.06;100447.09;4896906;29;20057;-68
2023/08/17 07:11:06;;;;;;;7.97;6.63;;;;;;;26.35;65.93;100437.19;4896767;29;20048;-68
2023/08/17 07:13:34;;;;;;;10.75;7.20;;;;;;;26.36;65.44;100448.97;4896672;29;20053;-68
2023/08/17 07:16:04;;;;;;;9.13;6.57;;;;;;;26.36;65.24;100440.78;4896949;29;20056;-69
2023/08/17 07:18:34;;;;;;;7.88;6.55;;;;;;;26.35;65.32;100444.53;4896946;29;20067;-69
2023/08/17 07:21:05;;;;;;;9.25;6.40;;;;;;;26.36;65.30;100446.22;4896709;29;20451;-69
2023/08/17 07:23:33;;;;;;;10.50;6.53;;;;;;;26.35;65.12;100433.59;4896682;29;20116;-69
2023/08/17 07:26:01;;;;;;;8.32;7.13;;;;;;;26.34;64.69;100434.63;4896447;29;20135;-70
2023/08/17 07:28:30;;;;;;;7.97;6.50;;;;;;;26.35;64.84;100434.44;4896390;29;20128;-68
2023/08/17 07:31:00;;;;;;;9.20;6.47;;;;;;;26.36;64.76;100447.09;4896701;29;20063;-66
2023/08/17 07:33:32;;;;;;;8.80;6.32;;;;;;;26.37;64.68;100447.94;4896597;29;20470;-68
2023/08/17 07:36:00;;;;;;;7.65;6.63;;;;;;;26.36;64.91;100440.78;4896631;29;20052;-66
2023/08/17 07:38:29;;;;;;;9.90;6.65;;;;;;;26.37;64.42;100442.47;4896451;29;20057;-67
2023/08/17 07:40:57;;;;;;;10.77;6.90;;;;;;;26.37;65.00;100453.41;4896276;29;20467;-67
2023/08/17 07:43:25;;;;;;;9.43;6.38;;;;;;;26.37;64.89;100442.47;4895476;29;20048;-67
2023/08/17 07:45:55;;;;;;;9.25;6.88;;;;;;;26.38;64.94;100445.03;4896024;29;20404;-67
2023/08/17 07:48:23;;;;;;;7.50;6.22;;;;;;;26.39;64.47;100440.41;4895879;29;20052;-67
2023/08/17 07:50:53;;;;;;;9.90;6.70;;;;;;;26.41;64.90;100446.53;4896387;29;20513;-67
2023/08/17 07:53:24;;;;;;;8.95;7.10;;;;;;;26.41;64.92;100444.63;4897362;29;20363;-66
2023/08/17 07:55:52;;;;;;;8.43;6.40;;;;;;;26.41;65.14;100438.31;4900262;29;20140;-67
2023/08/17 07:58:23;;;;;;;9.35;6.20;;;;;;;26.43;64.84;100436.25;4900322;29;20053;-67
2023/08/17 08:00:51;;;;;;;9.25;7.00;;;;;;;26.43;64.57;100428.03;4899125;29;20481;-67
2023/08/17 08:03:19;;;;;;;9.10;6.72;;;;;;;26.44;65.01;100432.47;4900194;29;20044;-67
2023/08/17 08:05:47;;;;;;;8.80;6.68;;;;;;;26.46;64.53;100431.25;4900055;29;20422;-67
2023/08/17 08:08:17;;;;;;;8.52;6.40;;;;;;;26.47;64.64;100430.22;4899941;29;20048;-67
2023/08/17 08:10:45;;;;;;;8.23;6.28;;;;;;;26.49;64.42;100435.50;4900237;29;20140;-67
2023/08/17 08:13:14;;;;;;;8.05;6.50;;;;;;;26.50;64.61;100435.28;4900173;29;20059;-67
2023/08/17 08:15:43;;;;;;;8.80;6.70;;;;;;;26.52;64.52;100430.47;4899909;29;20422;-67
2023/08/17 08:18:11;;;;;;;8.18;6.38;;;;;;;26.53;64.26;100434.06;4899843;29;20112;-66
2023/08/17 08:20:42;;;;;;;8.75;6.50;;;;;;;26.56;64.26;100432.84;4899605;29;20052;-67
2023/08/17 08:23:11;;;;;;;9.13;6.20;;;;;;;26.57;64.45;100426.34;4899962;29;20056;-67
2023/08/17 08:25:43;;;;;;;9.45;5.45;;;;;;;26.59;63.95;100424.25;4899765;29;20538;-66
2023/08/17 08:28:11;;;;;;;7.60;6.10;;;;;;;26.60;64.43;100421.31;4899645;29;20052;-67
2023/08/17 08:30:40;;;;;;;6.38;5.43;;;;;;;26.61;64.21;100420.28;4899639;29;20055;-66
2023/08/17 08:33:09;;;;;;;8.15;5.93;;;;;;;26.62;63.73;100419.22;4899437;29;20049;-67
2023/08/17 08:35:37;;;;;;;7.40;5.90;;;;;;;26.64;63.29;100428.13;4899760;29;20049;-67
2023/08/17 08:38:05;;;;;;;7.72;5.78;;;;;;;26.65;63.40;100426.22;4899418;29;20567;-66
2023/08/17 08:40:41;;;;;;;7.63;5.63;;;;;;;26.65;63.41;100416.13;4899553;29;20048;-66
2023/08/17 08:43:10;;;;;;;6.80;5.10;;;;;;;26.67;62.17;100426.88;4898373;29;20055;-66
2023/08/17 08:45:40;;;;;;;6.47;5.30;;;;;;;26.66;61.79;100426.03;4899649;29;20056;-66
2023/08/17 08:48:09;;;;;;;6.85;5.38;;;;;;;26.67;62.23;100424.97;4899468;29;20139;-66
2023/08/17 08:50:41;;;;;;;7.30;5.03;;;;;;;26.68;62.03;100421.19;4899259;29;20053;-67
2023/08/17 08:53:14;;;;;;;6.70;4.97;;;;;;;26.71;61.82;100426.28;4899323;29;20096;-67
2023/08/17 08:55:50;;;;;;;6.80;4.95;;;;;;;26.72;62.17;100421.66;4899198;29;20387;-67
2023/08/17 08:58:18;;;;;;;6.65;5.07;;;;;;;26.72;62.48;100418.91;4897909;29;20108;-67
2023/08/17 09:00:48;;;;;;;6.80;5.18;;;;;;;26.73;62.52;100426.09;4899248;29;20120;-66
2023/08/17 09:03:20;;;;;;;6.15;4.72;;;;;;;26.72;62.68;100422.50;4899020;29;20414;-66
2023/08/17 09:05:50;;;;;;;6.55;4.93;;;;;;;26.72;61.60;100425.22;4898860;29;20057;-66
2023/08/17 09:08:24;;;;;;;10.65;4.93;;;;;;;26.71;61.95;100418.06;4898904;29;20057;-67
2023/08/17 09:10:54;;;;;;;6.55;4.70;;;;;;;26.72;61.03;100419.75;4898825;29;20100;-67
2023/08/17 09:13:22;;;;;;;6.25;4.45;;;;;;;26.71;61.54;100407.13;4897706;29;20048;-66
2023/08/17 09:15:53;;;;;;;7.38;4.68;;;;;;;26.72;61.26;100419.75;4899009;29;20140;-67
2023/08/17 09:18:21;;;;;;;6.18;4.80;;;;;;;26.72;61.27;100419.75;4898725;29;20487;-66
2023/08/17 09:20:53;;;;;;;6.03;4.78;;;;;;;26.71;60.18;100409.88;4898747;29;20459;-67
2023/08/17 09:23:22;;;;;;;6.75;4.63;;;;;;;26.72;60.57;100419.75;4898643;29;20083;-67
2023/08/17 09:25:54;;;;;;;5.70;4.60;;;;;;;26.73;60.38;100404.19;4898791;29;20094;-67
2023/08/17 09:28:24;;;;;;;8.35;4.78;;;;;;;26.73;60.78;100406.94;4898322;29;20144;-67
2023/08/17 09:30:54;;;;;;;6.68;4.63;;;;;;;26.75;60.30;100402.97;4898705;29;20076;-67
2023/08/17 09:33:23;;;;;;;7.15;4.43;;;;;;;26.77;60.40;100402.78;4898515;29;20136;-66
2023/08/17 09:35:52;;;;;;;7.18;4.85;;;;;;;26.77;60.68;100406.38;4898403;29;20088;-67
2023/08/17 09:38:26;;;;;;;5.90;4.57;;;;;;;26.81;60.52;100396.72;4898651;29;20072;-66
2023/08/17 09:41:05;;;;;;;6.57;4.97;;;;;;;26.83;60.58;100399.28;4898549;29;20466;-66
2023/08/17 09:43:36;;;;;;;6.38;4.53;;;;;;;26.85;60.23;100396.34;4898405;29;20045;-67
2023/08/17 09:46:07;;;;;;;5.93;4.73;;;;;;;26.85;59.93;100397.19;4898272;29;20399;-67
2023/08/17 09:48:37;;;;;;;6.35;4.63;;;;;;;26.88;60.01;100390.47;4898196;29;20108;-66
2023/08/17 09:51:07;;;;;;;5.65;4.60;;;;;;;26.90;60.30;100385.66;4898412;29;20045;-66
2023/08/17 09:53:37;;;;;;;6.80;4.63;;;;;;;26.91;60.55;100379.13;4898341;29;20054;-66
2023/08/17 09:56:10;;;;;;;6.78;4.93;;;;;;;26.92;60.36;100380.81;4898189;29;20140;-65
2023/08/17 09:58:45;;;;;;;5.97;5.13;;;;;;;26.92;59.12;100384.41;4898315;29;20052;-66
2023/08/17 10:01:17;;;;;;;7.72;4.53;;;;;;;26.91;59.13;100385.44;4898247;29;20406;-65
2023/08/17 10:03:46;;;;;;;8.00;5.18;;;;;;;26.94;59.14;100385.06;4898127;29;20063;-66
2023/08/17 10:06:21;;;;;;;7.75;5.07;;;;;;;26.95;59.22;100373.09;4897918;29;20059;-66
2023/08/17 10:08:57;;;;;;;6.88;4.97;;;;;;;26.97;59.43;100378.34;4897735;29;20052;-66
2023/08/17 10:11:31;;;;;;;6.70;4.90;;;;;;;26.98;59.55;100389.09;4897853;29;20147;-66
2023/08/17 10:14:08;;;;;;;6.53;4.95;;;;;;;27.01;59.25;100390.59;4897932;29;20052;-66
2023/08/17 10:16:45;;;;;;;7.30;4.70;;;;;;;26.98;58.66;100380.88;4897353;29;20048;-67
2023/08/17 10:19:26;;;;;;;6.93;4.93;;;;;;;27.00;58.71;100389.75;4897769;29;20057;-66
2023/08/17 10:22:02;;;;;;;6.95;4.82;;;;;;;27.01;58.78;100385.13;4897594;29;20529;-67
2023/08/17 10:24:33;;;;;;;6.65;4.45;;;;;;;27.01;58.62;100390.59;4897821;29;20052;-66
2023/08/17 10:27:01;;;;;;;6.95;4.82;;;;;;;27.03;58.57;100383.09;4897613;29;20052;-65
2023/08/17 10:29:32;;;;;;;6.07;4.90;;;;;;;27.03;58.72;100388.56;4897489;29;20052;-66
2023/08/17 10:32:02;;;;;;;6.22;4.88;;;;;;;27.03;57.96;100383.09;4897635;29;20056;-66
2023/08/17 10:34:33;;;;;;;6.93;4.40;;;;;;;27.03;57.94;100385.84;4897254;29;20063;-66
2023/08/17 10:37:02;;;;;;;8.85;4.72;;;;;;;27.02;57.46;100376.78;4897449;29;20226;-66
2023/08/17 10:39:34;;;;;;;5.70;4.28;;;;;;;27.04;57.59;100380.16;4897296;29;20127;-66
2023/08/17 10:42:03;;;;;;;6.22;4.55;;;;;;;27.05;57.25;100387.31;4897253;29;20053;-66
2023/08/17 10:44:44;;;;;;;7.07;4.65;;;;;;;27.04;56.97;100382.03;4897060;29;20088;-66
2023/08/17 10:47:23;;;;;;;7.15;4.38;;;;;;;27.05;57.22;100387.31;4897248;29;20091;-67
2023/08/17 10:49:52;;;;;;;5.68;4.30;;;;;;;27.06;56.66;100389.00;4897218;29;20112;-66
2023/08/17 10:52:29;;;;;;;6.30;4.13;;;;;;;27.04;56.50;100379.31;4896154;29;20071;-66
2023/08/17 10:54:59;;;;;;;5.30;4.15;;;;;;;27.08;56.58;100391.53;4897090;29;20459;-66
2023/08/17 10:57:33;;;;;;;5.78;4.10;;;;;;;27.04;55.53;100376.56;4896806;29;20053;-65
2023/08/17 11:00:15;;;;;;;6.20;4.13;;;;;;;27.05;55.54;100390.06;4895835;29;20060;-66
2023/08/17 11:02:52;;;;;;;6.85;4.25;;;;;;;27.05;55.17;100383.75;4896964;29;20048;-66
2023/08/17 11:05:36;;;;;;;5.10;3.83;;;;;;;27.06;55.13;100388.16;4896789;29;20057;-65
2023/08/17 11:08:05;;;;;;;7.45;4.10;;;;;;;27.06;55.33;100382.69;4896660;29;20056;-65
2023/08/17 11:10:34;;;;;;;7.55;3.90;;;;;;;27.05;54.89;100389.22;4896965;29;20367;-66
2023/08/17 11:13:03;;;;;;;6.68;4.05;;;;;;;27.05;54.96;100381.00;4896862;29;20064;-65
2023/08/17 11:15:38;;;;;;;6.50;4.00;;;;;;;27.04;55.24;100384.78;4896805;29;20094;-66
2023/08/17 11:18:10;;;;;;;6.85;3.97;;;;;;;27.06;54.60;100377.22;4896604;29;20049;-66
2023/08/17 11:20:40;;;;;;;6.38;4.05;;;;;;;27.06;54.77;100382.69;4896589;29;20558;-65
2023/08/17 11:23:09;;;;;;;7.53;4.28;;;;;;;27.06;55.10;100382.69;4896739;29;20135;-66
2023/08/17 11:25:38;;;;;;;5.47;4.40;;;;;;;27.07;55.41;100374.28;4896914;29;20112;-65
2023/08/17 11:28:08;;;;;;;5.95;3.90;;;;;;;27.09;55.28;100376.81;4895735;29;20640;-67
2023/08/17 11:30:38;;;;;;;5.88;4.00;;;;;;;27.09;55.26;100374.91;4895511;29;20087;-66
2023/08/17 11:33:08;;;;;;;6.65;4.45;;;;;;;27.12;55.42;100381.03;4896947;29;20053;-67
2023/08/17 11:35:37;;;;;;;8.35;4.53;;;;;;;27.13;55.22;100380.88;4896626;29;20052;-66